Time;durP1;ratioP1;P1;durP2;ratioP2;P2;SDS_P1;SDS_P2;PMS_P1;PMS_P2;Temp;Humidity;BMP_temperature;BMP_pressure;BME280_temperature;BME280_humidity;BME280_pressure;Samples;Min_cycle;Max_cycle;Signal;HPM_P1;HPM_P2
2023/07/20 00:01:01;;;;;;;4.68;1.02;;;;;;;;;;5044008;28;20213;-27
2023/07/20 00:03:28;;;;;;;3.90;1.35;;;;;;;;;;5035439;28;20234;-27
2023/07/20 00:05:56;;;;;;;1.38;1.27;;;;;;;;;;5038560;28;20207;-28
2023/07/20 00:08:23;;;;;;;1.48;1.23;;;;;;;;;;5046123;28;20226;-27
2023/07/20 00:10:50;;;;;;;3.92;1.35;;;;;;;;;;5049754;28;20209;-30
2023/07/20 00:13:18;;;;;;;1.85;1.50;;;;;;;;;;5049878;28;20207;-27
2023/07/20 00:15:45;;;;;;;1.85;1.30;;;;;;;;;;5042848;28;20223;-29
2023/07/20 00:18:13;;;;;;;1.90;1.70;;;;;;;;;;5054541;28;20202;-28
2023/07/20 00:20:40;;;;;;;1.50;1.40;;;;;;;;;;5045416;28;20294;-27
2023/07/20 00:23:08;;;;;;;1.50;1.40;;;;;;;;;;5042758;28;20198;-27
2023/07/20 00:25:36;;;;;;;1.98;1.42;;;;;;;;;;5039654;28;20296;-27
2023/07/20 00:28:03;;;;;;;2.13;1.40;;;;;;;;;;5043910;28;20206;-28
2023/07/20 00:30:30;;;;;;;1.63;1.52;;;;;;;;;;5040140;28;20207;-28
2023/07/20 00:32:58;;;;;;;1.48;1.38;;;;;;;;;;5033764;28;20211;-29
2023/07/20 00:35:26;;;;;;;2.00;1.48;;;;;;;;;;5040486;28;20222;-29
2023/07/20 00:37:53;;;;;;;2.33;1.30;;;;;;;;;;5050149;28;20629;-26
2023/07/20 00:40:21;;;;;;;3.22;1.40;;;;;;;;;;5033588;28;20223;-28
2023/07/20 00:42:48;;;;;;;2.33;1.42;;;;;;;;;;5044680;28;20211;-28
2023/07/20 00:45:16;;;;;;;2.25;1.50;;;;;;;;;;5041553;28;20292;-28
2023/07/20 00:47:43;;;;;;;1.50;1.40;;;;;;;;;;5031966;28;20209;-29
2023/07/20 00:50:11;;;;;;;2.42;1.70;;;;;;;;;;5037134;28;20225;-28
2023/07/20 00:52:40;;;;;;;2.25;1.55;;;;;;;;;;5040608;28;20612;-31
2023/07/20 00:55:08;;;;;;;2.25;1.27;;;;;;;;;;5049109;28;20757;-29
2023/07/20 00:57:44;;;;;;;1.42;1.30;;;;;;;;;;5042447;28;20296;-26
2023/07/20 01:00:12;;;;;;;2.42;1.20;;;;;;;;;;5036988;28;20221;-28
2023/07/20 01:02:39;;;;;;;1.95;1.55;;;;;;;;;;5053467;28;20225;-30
2023/07/20 01:05:07;;;;;;;1.85;1.50;;;;;;;;;;5048782;28;20199;-26
2023/07/20 01:07:36;;;;;;;2.03;1.48;;;;;;;;;;5052182;28;20673;-28
2023/07/20 01:10:04;;;;;;;2.03;1.60;;;;;;;;;;5034134;28;20223;-29
2023/07/20 01:12:34;;;;;;;1.85;1.40;;;;;;;;;;5044013;28;20207;-29
2023/07/20 01:15:03;;;;;;;1.88;1.38;;;;;;;;;;5053920;28;20225;-27
2023/07/20 01:17:30;;;;;;;2.90;1.30;;;;;;;;;;5148237;22;20259;-26
2023/07/20 01:19:57;;;;;;;1.70;1.38;;;;;;;;;;5047094;28;20238;-30
2023/07/20 01:22:34;;;;;;;1.58;1.23;;;;;;;;;;5044891;28;20293;-29
2023/07/20 01:25:19;;;;;;;2.38;1.67;;;;;;;;;;5050950;28;20206;-28
2023/07/20 01:28:14;;;;;;;2.08;1.30;;;;;;;;;;5048760;28;20280;-27
2023/07/20 01:30:48;;;;;;;1.65;1.42;;;;;;;;;;5050533;28;20586;-29
2023/07/20 01:33:18;;;;;;;1.95;1.50;;;;;;;;;;5051140;28;20212;-30
2023/07/20 01:35:46;;;;;;;2.38;1.33;;;;;;;;;;5045942;28;20305;-28
2023/07/20 01:38:14;;;;;;;5.10;1.30;;;;;;;;;;5048447;28;20220;-26
2023/07/20 01:40:42;;;;;;;1.30;1.20;;;;;;;;;;5057632;28;20205;-27
2023/07/20 01:43:09;;;;;;;3.00;1.60;;;;;;;;;;5040531;28;20220;-26
2023/07/20 01:45:36;;;;;;;3.00;1.47;;;;;;;;;;5065763;28;20199;-30
2023/07/20 01:48:04;;;;;;;4.68;1.42;;;;;;;;;;5069902;28;20229;-29
2023/07/20 01:50:34;;;;;;;2.25;1.40;;;;;;;;;;5053147;28;20209;-29
2023/07/20 01:53:01;;;;;;;1.88;1.50;;;;;;;;;;5057187;28;20235;-30
2023/07/20 01:55:28;;;;;;;2.78;1.98;;;;;;;;;;5051287;28;20520;-29
2023/07/20 01:57:56;;;;;;;1.80;1.50;;;;;;;;;;5047867;28;20213;-28
2023/07/20 02:00:24;;;;;;;3.92;1.80;;;;;;;;;;5056864;28;20313;-30
2023/07/20 02:02:51;;;;;;;2.85;1.50;;;;;;;;;;5047618;28;20281;-28
2023/07/20 02:05:18;;;;;;;1.60;1.50;;;;;;;;;;5043434;28;20194;-26
2023/07/20 02:07:47;;;;;;;1.50;1.40;;;;;;;;;;5054220;28;20208;-30
2023/07/20 02:10:14;;;;;;;1.52;1.42;;;;;;;;;;5047892;28;20229;-27
2023/07/20 02:12:41;;;;;;;1.63;1.52;;;;;;;;;;5046779;28;20214;-26
2023/07/20 02:15:09;;;;;;;1.77;1.30;;;;;;;;;;5052579;28;20198;-29
2023/07/20 02:17:36;;;;;;;2.78;1.40;;;;;;;;;;5069787;28;20213;-27
2023/07/20 02:20:04;;;;;;;3.57;1.40;;;;;;;;;;5051623;28;20336;-28
2023/07/20 02:22:31;;;;;;;3.17;1.90;;;;;;;;;;5045178;28;20209;-28
2023/07/20 02:25:00;;;;;;;3.25;1.70;;;;;;;;;;5061225;28;20205;-27
2023/07/20 02:27:27;;;;;;;2.85;1.45;;;;;;;;;;5037424;28;20209;-29
2023/07/20 02:29:54;;;;;;;1.70;1.38;;;;;;;;;;5056970;28;20514;-27
2023/07/20 02:32:21;;;;;;;2.90;1.70;;;;;;;;;;5070052;28;20212;-30
2023/07/20 02:34:48;;;;;;;2.15;1.60;;;;;;;;;;5055353;28;20206;-29
2023/07/20 02:37:15;;;;;;;2.83;1.30;;;;;;;;;;5046730;28;20666;-27
2023/07/20 02:39:42;;;;;;;8.73;2.30;;;;;;;;;;5053635;28;20226;-29
2023/07/20 02:42:11;;;;;;;3.53;1.83;;;;;;;;;;5040987;28;20213;-27
2023/07/20 02:44:38;;;;;;;1.58;1.48;;;;;;;;;;5053853;28;20233;-29
2023/07/20 02:47:05;;;;;;;3.53;1.75;;;;;;;;;;5071576;28;20197;-27
2023/07/20 02:49:32;;;;;;;2.28;1.83;;;;;;;;;;5058043;28;20227;-28
2023/07/20 02:51:59;;;;;;;2.23;1.83;;;;;;;;;;5048738;28;20212;-27
2023/07/20 02:54:26;;;;;;;2.45;1.67;;;;;;;;;;5063486;28;20201;-27
2023/07/20 02:56:54;;;;;;;2.07;1.47;;;;;;;;;;5046809;28;20296;-30
2023/07/20 02:59:22;;;;;;;1.97;1.40;;;;;;;;;;5049074;28;20233;-30
2023/07/20 03:01:49;;;;;;;1.83;1.60;;;;;;;;;;5066511;28;20537;-27
2023/07/20 03:04:17;;;;;;;4.85;1.80;;;;;;;;;;5054978;28;20209;-29
2023/07/20 03:06:44;;;;;;;2.70;1.70;;;;;;;;;;5049451;28;20210;-29
2023/07/20 03:09:11;;;;;;;2.30;1.60;;;;;;;;;;5065160;28;20306;-26
2023/07/20 03:11:38;;;;;;;3.90;1.60;;;;;;;;;;5059469;28;20201;-26
2023/07/20 03:14:05;;;;;;;2.40;1.70;;;;;;;;;;5060024;28;20209;-28
2023/07/20 03:16:34;;;;;;;1.33;1.23;;;;;;;;;;5072897;28;20247;-30
2023/07/20 03:19:01;;;;;;;3.07;1.40;;;;;;;;;;5066077;28;20221;-28
2023/07/20 03:21:28;;;;;;;2.57;1.90;;;;;;;;;;5059515;28;20208;-29
2023/07/20 03:23:55;;;;;;;2.07;1.73;;;;;;;;;;5062495;28;20206;-29
2023/07/20 03:26:23;;;;;;;1.45;1.35;;;;;;;;;;5058749;28;20197;-27
2023/07/20 03:28:50;;;;;;;3.00;1.40;;;;;;;;;;5058569;28;20224;-27
2023/07/20 03:31:17;;;;;;;3.77;1.60;;;;;;;;;;5062988;28;20207;-29
2023/07/20 03:33:46;;;;;;;3.23;1.80;;;;;;;;;;5055934;28;20204;-28
2023/07/20 03:36:13;;;;;;;2.80;1.73;;;;;;;;;;5047096;28;20688;-28
2023/07/20 03:38:40;;;;;;;2.13;1.92;;;;;;;;;;5048888;28;20231;-30
2023/07/20 03:41:09;;;;;;;2.80;1.67;;;;;;;;;;5046797;28;20202;-28
2023/07/20 03:43:36;;;;;;;1.87;1.77;;;;;;;;;;5062646;28;20288;-29
2023/07/20 03:46:06;;;;;;;2.20;1.43;;;;;;;;;;5068677;28;20209;-29
2023/07/20 03:48:33;;;;;;;1.87;1.50;;;;;;;;;;5054750;28;20578;-26
2023/07/20 03:51:02;;;;;;;2.50;1.70;;;;;;;;;;5051774;28;20198;-27
2023/07/20 03:53:29;;;;;;;2.10;1.50;;;;;;;;;;5064126;28;20219;-28
2023/07/20 03:55:56;;;;;;;1.50;1.40;;;;;;;;;;5056345;28;20610;-29
2023/07/20 03:58:23;;;;;;;2.63;1.50;;;;;;;;;;5054661;28;20228;-28
2023/07/20 04:00:51;;;;;;;2.60;1.60;;;;;;;;;;5065879;28;20208;-29
2023/07/20 04:03:18;;;;;;;2.13;1.40;;;;;;;;;;5050537;28;20205;-29
2023/07/20 04:05:46;;;;;;;1.80;1.70;;;;;;;;;;5041331;28;20214;-29
2023/07/20 04:08:15;;;;;;;3.97;1.93;;;;;;;;;;5063845;28;20212;-26
2023/07/20 04:10:45;;;;;;;2.83;1.87;;;;;;;;;;5062147;28;20209;-28
2023/07/20 04:13:12;;;;;;;1.90;1.60;;;;;;;;;;5051712;28;20204;-29
2023/07/20 04:15:39;;;;;;;3.30;2.10;;;;;;;;;;5065760;28;20205;-27
2023/07/20 04:18:06;;;;;;;2.67;1.60;;;;;;;;;;5053999;28;20225;-27
2023/07/20 04:20:34;;;;;;;3.13;1.47;;;;;;;;;;5042716;28;20206;-27
2023/07/20 04:23:01;;;;;;;1.83;1.73;;;;;;;;;;5049231;28;20206;-27
2023/07/20 04:25:30;;;;;;;1.73;1.60;;;;;;;;;;5049886;28;20205;-29
2023/07/20 04:27:57;;;;;;;2.60;1.93;;;;;;;;;;5054851;28;20564;-26
2023/07/20 04:30:24;;;;;;;3.20;1.50;;;;;;;;;;5065864;28;20212;-30
2023/07/20 04:32:51;;;;;;;2.50;1.37;;;;;;;;;;5074362;28;20406;-26
2023/07/20 04:35:19;;;;;;;3.17;2.13;;;;;;;;;;5061176;28;20202;-29
2023/07/20 04:37:47;;;;;;;1.93;1.50;;;;;;;;;;5054491;28;20225;-27
2023/07/20 04:40:14;;;;;;;2.73;1.50;;;;;;;;;;5059866;28;20588;-26
2023/07/20 04:42:43;;;;;;;1.90;1.80;;;;;;;;;;5048947;28;20209;-29
2023/07/20 04:45:10;;;;;;;2.03;1.73;;;;;;;;;;5043561;28;20209;-29
2023/07/20 04:47:37;;;;;;;1.83;1.73;;;;;;;;;;5050022;28;20662;-26
2023/07/20 04:50:05;;;;;;;3.13;1.80;;;;;;;;;;5050112;28;20232;-28
2023/07/20 04:52:32;;;;;;;7.27;2.20;;;;;;;;;;5048014;28;20216;-28
2023/07/20 04:54:59;;;;;;;2.10;1.80;;;;;;;;;;5053845;28;20233;-27
2023/07/20 04:57:26;;;;;;;1.93;1.73;;;;;;;;;;5042488;28;20230;-29
2023/07/20 04:59:55;;;;;;;2.50;1.90;;;;;;;;;;5070735;28;20249;-28
2023/07/20 05:02:22;;;;;;;1.77;1.67;;;;;;;;;;5073539;28;20209;-28
2023/07/20 05:04:49;;;;;;;4.47;2.07;;;;;;;;;;5073837;28;20216;-27
2023/07/20 05:07:16;;;;;;;2.73;1.57;;;;;;;;;;5057925;28;20240;-27
2023/07/20 05:09:43;;;;;;;3.23;2.07;;;;;;;;;;5057971;28;20229;-29
2023/07/20 05:12:11;;;;;;;3.00;1.77;;;;;;;;;;5048671;28;20678;-27
2023/07/20 05:14:38;;;;;;;1.80;1.70;;;;;;;;;;5057021;28;20215;-27
2023/07/20 05:17:07;;;;;;;1.60;1.50;;;;;;;;;;5052831;28;20217;-29
2023/07/20 05:19:34;;;;;;;1.60;1.50;;;;;;;;;;5047521;28;20233;-28
2023/07/20 05:22:01;;;;;;;2.80;1.97;;;;;;;;;;5043470;28;20204;-27
2023/07/20 05:24:29;;;;;;;2.67;1.70;;;;;;;;;;5059191;28;20208;-27
2023/07/20 05:26:56;;;;;;;2.30;1.80;;;;;;;;;;5053912;28;20214;-29
2023/07/20 05:29:23;;;;;;;3.03;2.10;;;;;;;;;;5054926;28;20226;-26
2023/07/20 05:31:50;;;;;;;1.90;1.73;;;;;;;;;;5052461;28;20201;-29
2023/07/20 05:34:18;;;;;;;1.70;1.47;;;;;;;;;;5045665;28;20859;-27
2023/07/20 05:36:45;;;;;;;2.03;1.90;;;;;;;;;;5055084;28;20236;-28
2023/07/20 05:39:13;;;;;;;1.77;1.47;;;;;;;;;;5056994;28;20279;-25
2023/07/20 05:41:40;;;;;;;1.90;1.80;;;;;;;;;;5046587;28;20210;-29
2023/07/20 05:44:07;;;;;;;3.20;1.67;;;;;;;;;;5068047;28;20200;-28
2023/07/20 05:46:34;;;;;;;2.93;1.80;;;;;;;;;;5073035;28;20215;-28
2023/07/20 05:49:02;;;;;;;2.47;1.67;;;;;;;;;;5074291;28;20257;-27
2023/07/20 05:51:30;;;;;;;1.67;1.57;;;;;;;;;;5056841;28;20228;-28
2023/07/20 05:53:57;;;;;;;3.20;1.65;;;;;;;;;;5063834;28;20209;-29
2023/07/20 05:56:24;;;;;;;1.93;1.50;;;;;;;;;;5055412;28;20296;-29
2023/07/20 05:58:51;;;;;;;3.13;1.70;;;;;;;;;;5066419;28;20231;-28
2023/07/20 06:01:19;;;;;;;2.50;1.60;;;;;;;;;;5059935;28;20567;-26
2023/07/20 06:03:46;;;;;;;1.60;1.50;;;;;;;;;;5053202;28;20206;-28
2023/07/20 06:06:13;;;;;;;2.00;1.70;;;;;;;;;;5048864;28;20228;-29
2023/07/20 06:08:42;;;;;;;3.47;2.03;;;;;;;;;;5052560;28;20258;-28
2023/07/20 06:11:09;;;;;;;3.00;2.00;;;;;;;;;;5052631;28;20197;-29
2023/07/20 06:13:36;;;;;;;2.10;1.60;;;;;;;;;;5051130;28;20205;-29
2023/07/20 06:16:03;;;;;;;1.70;1.60;;;;;;;;;;5066464;28;20212;-29
2023/07/20 06:18:31;;;;;;;4.30;1.67;;;;;;;;;;5051624;28;20229;-29
2023/07/20 06:20:58;;;;;;;3.87;2.00;;;;;;;;;;5038952;28;20214;-27
2023/07/20 06:23:25;;;;;;;4.03;1.80;;;;;;;;;;5060488;28;20204;-28
2023/07/20 06:25:54;;;;;;;1.70;1.60;;;;;;;;;;5048911;28;20212;-29
2023/07/20 06:28:21;;;;;;;2.03;1.83;;;;;;;;;;5055259;28;20233;-27
2023/07/20 06:30:48;;;;;;;3.97;1.97;;;;;;;;;;5055508;28;20211;-26
2023/07/20 06:33:15;;;;;;;3.63;1.70;;;;;;;;;;5052492;28;20267;-29
2023/07/20 06:35:43;;;;;;;2.53;1.75;;;;;;;;;;5045387;28;20256;-29
2023/07/20 06:38:10;;;;;;;1.60;1.50;;;;;;;;;;5047994;28;20226;-28
2023/07/20 06:40:38;;;;;;;5.63;1.70;;;;;;;;;;5059246;28;20217;-28
2023/07/20 06:43:06;;;;;;;2.13;1.93;;;;;;;;;;5047976;28;20208;-26
2023/07/20 06:45:33;;;;;;;4.63;1.77;;;;;;;;;;5056943;28;20205;-30
2023/07/20 06:48:00;;;;;;;3.33;1.80;;;;;;;;;;5051873;28;20202;-27
2023/07/20 06:50:27;;;;;;;4.37;1.60;;;;;;;;;;5048574;28;20289;-31
2023/07/20 06:52:54;;;;;;;2.38;1.45;;;;;;;;;;5049124;28;20213;-26
2023/07/20 06:55:22;;;;;;;2.37;1.57;;;;;;;;;;5055525;28;20202;-27
2023/07/20 06:57:49;;;;;;;2.28;1.75;;;;;;;;;;5042059;28;20697;-29
2023/07/20 07:00:18;;;;;;;1.80;1.67;;;;;;;;;;5049562;28;20229;-28
2023/07/20 07:02:45;;;;;;;2.13;1.77;;;;;;;;;;5051059;28;20205;-30
2023/07/20 07:05:13;;;;;;;3.20;1.70;;;;;;;;;;5046467;28;20209;-28
2023/07/20 07:07:40;;;;;;;4.57;1.80;;;;;;;;;;5059068;28;20202;-30
2023/07/20 07:10:08;;;;;;;2.38;1.63;;;;;;;;;;5051162;28;20233;-30
2023/07/20 07:12:35;;;;;;;2.58;1.50;;;;;;;;;;5040692;28;20205;-30
2023/07/20 07:15:03;;;;;;;2.10;1.40;;;;;;;;;;5050358;28;20201;-25
2023/07/20 07:17:32;;;;;;;3.67;1.90;;;;;;;;;;5051246;28;20241;-26
2023/07/20 07:19:59;;;;;;;3.72;1.88;;;;;;;;;;5045195;28;20226;-29
2023/07/20 07:24:55;;;;;;;2.42;1.50;;;;;;;;;;5085479;28;20216;-31
2023/07/20 07:27:22;;;;;;;3.33;1.50;;;;;;;;;;5090609;28;20216;-33
2023/07/20 07:29:49;;;;;;;2.28;1.45;;;;;;;;;;5084250;28;20223;-31
2023/07/20 07:32:16;;;;;;;4.65;1.50;;;;;;;;;;5071520;28;20477;-29
2023/07/20 07:34:46;;;;;;;2.20;1.52;;;;;;;;;;5064409;28;20206;-30
2023/07/20 07:37:13;;;;;;;2.63;1.70;;;;;;;;;;5054457;28;20228;-30
2023/07/20 07:39:40;;;;;;;2.85;1.67;;;;;;;;;;5068039;28;20251;-32
2023/07/20 07:42:09;;;;;;;2.25;1.80;;;;;;;;;;5060665;28;20297;-35
2023/07/20 07:44:36;;;;;;;2.13;1.60;;;;;;;;;;5082126;28;20197;-28
2023/07/20 07:47:03;;;;;;;5.07;1.83;;;;;;;;;;5071564;28;20209;-37
2023/07/20 07:49:31;;;;;;;6.35;1.95;;;;;;;;;;5066108;28;20235;-32
2023/07/20 07:52:02;;;;;;;3.80;1.58;;;;;;;;;;5056725;28;20203;-32
2023/07/20 07:54:29;;;;;;;2.78;1.67;;;;;;;;;;5072131;28;20195;-37
2023/07/20 07:57:03;;;;;;;1.85;1.40;;;;;;;;;;5065369;28;20286;-34
2023/07/20 07:59:35;;;;;;;1.90;1.40;;;;;;;;;;5079846;28;20231;-36
2023/07/20 08:02:02;;;;;;;4.38;1.70;;;;;;;;;;5093614;28;20219;-33
2023/07/20 08:04:29;;;;;;;3.60;1.30;;;;;;;;;;5094810;28;20205;-28
2023/07/20 08:06:56;;;;;;;4.65;1.50;;;;;;;;;;5067327;28;20209;-36
2023/07/20 08:09:32;;;;;;;2.88;1.70;;;;;;;;;;5063503;28;20217;-35
2023/07/20 08:12:00;;;;;;;2.20;1.35;;;;;;;;;;5063678;28;20202;-29
2023/07/20 08:14:27;;;;;;;3.83;1.50;;;;;;;;;;5083769;28;20204;-34
2023/07/20 08:16:55;;;;;;;1.92;1.50;;;;;;;;;;5075981;28;20227;-32
2023/07/20 08:19:22;;;;;;;4.60;1.60;;;;;;;;;;5065102;28;20277;-33
2023/07/20 08:21:49;;;;;;;2.38;1.60;;;;;;;;;;5077033;28;20204;-30
2023/07/20 08:24:16;;;;;;;5.13;1.40;;;;;;;;;;5079193;28;20219;-35
2023/07/20 08:26:44;;;;;;;1.80;1.50;;;;;;;;;;5074826;28;20200;-34
2023/07/20 08:29:11;;;;;;;3.08;1.50;;;;;;;;;;5068863;28;20235;-33
2023/07/20 08:31:39;;;;;;;1.92;1.35;;;;;;;;;;5071122;28;20303;-30
2023/07/20 08:34:06;;;;;;;3.17;1.60;;;;;;;;;;5072237;28;20662;-30
2023/07/20 08:36:33;;;;;;;2.67;1.42;;;;;;;;;;5070963;28;20212;-30
2023/07/20 08:39:02;;;;;;;1.98;1.55;;;;;;;;;;5068909;28;20233;-32
2023/07/20 08:41:29;;;;;;;2.30;1.40;;;;;;;;;;5067610;28;20206;-36
2023/07/20 08:43:58;;;;;;;2.33;1.30;;;;;;;;;;5072401;28;20682;-30
2023/07/20 08:46:26;;;;;;;3.08;1.48;;;;;;;;;;5072689;28;20201;-34
2023/07/20 08:48:54;;;;;;;1.90;1.63;;;;;;;;;;5074384;28;20225;-35
2023/07/20 08:51:22;;;;;;;1.65;1.30;;;;;;;;;;5068852;28;20205;-34
2023/07/20 08:53:52;;;;;;;2.95;1.77;;;;;;;;;;5071126;28;20255;-37
2023/07/20 08:56:19;;;;;;;1.67;1.55;;;;;;;;;;5059636;28;20205;-34
2023/07/20 08:58:47;;;;;;;1.50;1.40;;;;;;;;;;5070130;28;20241;-30
2023/07/20 09:01:16;;;;;;;1.33;1.23;;;;;;;;;;5081083;28;20205;-30
2023/07/20 09:03:43;;;;;;;2.47;2.00;;;;;;;;;;5064392;28;20202;-31
2023/07/20 09:06:11;;;;;;;3.10;1.98;;;;;;;;;;5063389;28;20239;-38
2023/07/20 09:08:39;;;;;;;3.50;1.30;;;;;;;;;;5077602;28;20217;-36
2023/07/20 09:11:06;;;;;;;1.63;1.45;;;;;;;;;;5068293;28;20246;-35
2023/07/20 09:13:34;;;;;;;3.80;1.75;;;;;;;;;;5084371;28;20204;-33
2023/07/20 09:16:01;;;;;;;2.25;1.55;;;;;;;;;;5095169;28;20204;-30
2023/07/20 09:18:31;;;;;;;3.97;1.70;;;;;;;;;;5089838;28;20229;-35
2023/07/20 09:21:03;;;;;;;2.67;1.88;;;;;;;;;;5069717;28;20210;-34
2023/07/20 09:23:33;;;;;;;1.70;1.52;;;;;;;;;;5078761;28;20216;-31
2023/07/20 09:26:01;;;;;;;1.63;1.42;;;;;;;;;;5070296;28;20209;-34
2023/07/20 09:28:44;;;;;;;1.70;1.20;;;;;;;;;;5069373;28;20221;-30
2023/07/20 09:31:17;;;;;;;1.38;1.17;;;;;;;;;;5076806;28;20226;-33
2023/07/20 09:33:46;;;;;;;2.15;1.40;;;;;;;;;;5093653;28;20197;-38
2023/07/20 09:36:13;;;;;;;1.75;1.35;;;;;;;;;;5076102;28;20241;-35
2023/07/20 09:38:40;;;;;;;2.08;1.65;;;;;;;;;;5079879;28;20232;-31
2023/07/20 09:41:08;;;;;;;2.55;1.40;;;;;;;;;;5079103;28;20200;-35
2023/07/20 09:43:34;;;;;;;3.58;1.45;;;;;;;;;;5075786;28;20227;-37
2023/07/20 09:46:01;;;;;;;3.50;1.40;;;;;;;;;;5074108;28;20552;-33
2023/07/20 09:48:28;;;;;;;3.33;1.73;;;;;;;;;;5069229;28;20248;-32
2023/07/20 09:50:57;;;;;;;2.03;1.70;;;;;;;;;;5056181;28;20198;-33
2023/07/20 09:53:27;;;;;;;1.60;1.50;;;;;;;;;;5057486;28;20304;-31
2023/07/20 09:55:55;;;;;;;1.80;1.30;;;;;;;;;;5059147;28;20205;-36
2023/07/20 09:58:23;;;;;;;1.30;1.30;;;;;;;;;;5065439;28;20232;-31
2023/07/20 10:00:52;;;;;;;3.92;1.55;;;;;;;;;;5081343;28;20235;-34
2023/07/20 10:03:22;;;;;;;1.63;1.50;;;;;;;;;;5069904;28;20200;-32
2023/07/20 10:05:53;;;;;;;7.47;1.90;;;;;;;;;;5064793;28;20209;-34
2023/07/20 10:08:22;;;;;;;2.08;1.48;;;;;;;;;;5066845;28;20220;-34
2023/07/20 10:10:49;;;;;;;1.67;1.50;;;;;;;;;;5074265;28;20208;-35
2023/07/20 10:13:19;;;;;;;2.42;1.42;;;;;;;;;;5067918;28;20298;-33
2023/07/20 10:15:48;;;;;;;5.35;1.88;;;;;;;;;;5088114;28;20208;-37
2023/07/20 10:18:19;;;;;;;2.80;1.45;;;;;;;;;;5088316;28;20612;-33
2023/07/20 10:20:47;;;;;;;1.80;1.42;;;;;;;;;;5071334;28;20219;-34
2023/07/20 10:23:15;;;;;;;2.45;1.77;;;;;;;;;;5077488;28;20218;-28
2023/07/20 10:25:43;;;;;;;2.03;1.70;;;;;;;;;;5067485;28;20210;-40
2023/07/20 10:28:12;;;;;;;3.28;1.70;;;;;;;;;;5065982;28;20212;-27
2023/07/20 10:30:45;;;;;;;1.67;1.50;;;;;;;;;;5076700;28;20210;-33
2023/07/20 10:33:13;;;;;;;1.40;1.30;;;;;;;;;;5087150;28;20207;-35
2023/07/20 10:35:52;;;;;;;1.80;1.48;;;;;;;;;;5063741;28;20237;-29
2023/07/20 10:38:20;;;;;;;1.35;1.25;;;;;;;;;;5070082;28;20239;-36
2023/07/20 10:40:56;;;;;;;1.52;1.42;;;;;;;;;;5064431;28;20219;-33
2023/07/20 10:43:25;;;;;;;1.73;1.63;;;;;;;;;;5072070;28;20218;-32
2023/07/20 10:45:52;;;;;;;4.68;1.95;;;;;;;;;;5080012;28;20233;-35
2023/07/20 10:48:20;;;;;;;2.05;1.67;;;;;;;;;;5060936;28;20231;-32
2023/07/20 10:50:47;;;;;;;3.13;1.63;;;;;;;;;;5059032;28;20236;-36
2023/07/20 10:53:22;;;;;;;2.03;1.40;;;;;;;;;;5076860;28;20202;-31
2023/07/20 10:55:50;;;;;;;1.80;1.52;;;;;;;;;;5063780;28;20211;-35
2023/07/20 10:58:20;;;;;;;1.80;1.48;;;;;;;;;;5068741;28;20227;-33
2023/07/20 11:01:01;;;;;;;2.40;1.33;;;;;;;;;;5071825;28;20275;-31
2023/07/20 11:03:29;;;;;;;2.80;1.30;;;;;;;;;;5069170;28;20368;-31
2023/07/20 11:05:57;;;;;;;2.70;1.42;;;;;;;;;;5060742;28;20203;-39
2023/07/20 11:08:39;;;;;;;3.80;1.70;;;;;;;;;;5066211;28;20227;-35
2023/07/20 11:11:22;;;;;;;2.92;1.67;;;;;;;;;;5067980;28;20202;-32
2023/07/20 11:13:58;;;;;;;2.38;1.52;;;;;;;;;;5060768;28;20290;-34
2023/07/20 11:16:40;;;;;;;2.83;1.40;;;;;;;;;;5067112;28;20203;-33
2023/07/20 11:19:08;;;;;;;1.27;1.20;;;;;;;;;;5063582;28;20227;-34
2023/07/20 11:21:39;;;;;;;2.92;1.45;;;;;;;;;;5062960;28;20218;-36
2023/07/20 11:24:09;;;;;;;2.50;1.38;;;;;;;;;;5083508;28;20218;-38
2023/07/20 11:26:43;;;;;;;4.15;1.50;;;;;;;;;;5067092;28;20204;-37
2023/07/20 11:29:12;;;;;;;2.63;1.73;;;;;;;;;;5061065;28;20219;-34
2023/07/20 11:31:40;;;;;;;1.83;1.60;;;;;;;;;;5074198;28;20199;-30
2023/07/20 11:34:08;;;;;;;2.35;1.17;;;;;;;;;;5070598;28;20236;-39
2023/07/20 11:36:35;;;;;;;3.33;1.38;;;;;;;;;;5072187;28;20208;-36
2023/07/20 11:39:04;;;;;;;1.95;1.63;;;;;;;;;;5082274;28;20466;-33
2023/07/20 11:41:31;;;;;;;3.10;1.45;;;;;;;;;;5077753;28;20239;-32
2023/07/20 11:43:59;;;;;;;3.65;1.35;;;;;;;;;;5086082;28;20512;-34
2023/07/20 11:46:29;;;;;;;4.32;1.30;;;;;;;;;;5093299;28;20402;-35
2023/07/20 11:49:00;;;;;;;2.13;1.20;;;;;;;;;;5084896;28;20226;-31
2023/07/20 11:51:28;;;;;;;1.58;1.42;;;;;;;;;;5067444;28;20206;-36
2023/07/20 11:54:02;;;;;;;1.85;1.40;;;;;;;;;;5083115;28;20204;-38
2023/07/20 11:56:30;;;;;;;1.92;1.38;;;;;;;;;;5069130;28;20516;-30
2023/07/20 11:58:59;;;;;;;1.45;1.10;;;;;;;;;;5066946;28;20234;-30
2023/07/20 12:01:29;;;;;;;1.67;1.13;;;;;;;;;;5071631;28;20207;-32
2023/07/20 12:03:57;;;;;;;1.23;1.20;;;;;;;;;;5072723;28;20247;-36
2023/07/20 12:06:25;;;;;;;1.13;1.02;;;;;;;;;;5066383;28;20216;-32
2023/07/20 12:08:52;;;;;;;2.60;1.10;;;;;;;;;;5070419;28;20229;-32
2023/07/20 12:11:32;;;;;;;1.63;1.10;;;;;;;;;;5064909;28;20203;-30
2023/07/20 12:13:59;;;;;;;1.45;1.30;;;;;;;;;;5080858;28;20201;-31
2023/07/20 12:16:30;;;;;;;1.45;1.35;;;;;;;;;;5072144;28;20208;-32
2023/07/20 12:19:06;;;;;;;1.77;1.38;;;;;;;;;;5065314;28;20225;-30
2023/07/20 12:21:35;;;;;;;1.20;1.10;;;;;;;;;;5058923;28;20203;-28
2023/07/20 12:24:03;;;;;;;8.02;1.17;;;;;;;;;;5086459;28;20217;-30
2023/07/20 12:26:30;;;;;;;1.27;1.15;;;;;;;;;;5079782;28;20211;-35
2023/07/20 12:28:57;;;;;;;2.08;1.17;;;;;;;;;;5069972;28;20227;-35
2023/07/20 12:31:25;;;;;;;2.33;1.10;;;;;;;;;;5074439;28;20209;-32
2023/07/20 12:33:53;;;;;;;0.98;0.85;;;;;;;;;;5066805;28;20458;-33
2023/07/20 12:36:20;;;;;;;1.27;1.17;;;;;;;;;;5073797;28;20232;-33
2023/07/20 12:38:47;;;;;;;1.38;1.02;;;;;;;;;;5083303;28;20230;-33
2023/07/20 12:41:15;;;;;;;3.33;1.42;;;;;;;;;;5071108;28;20217;-34
2023/07/20 12:43:42;;;;;;;1.13;1.00;;;;;;;;;;5068160;28;20204;-31
2023/07/20 12:46:09;;;;;;;1.48;1.20;;;;;;;;;;5080744;28;20204;-33
2023/07/20 12:48:37;;;;;;;1.85;1.10;;;;;;;;;;5072203;28;20529;-32
2023/07/20 12:51:06;;;;;;;2.65;0.98;;;;;;;;;;5066000;28;20232;-38
2023/07/20 12:53:35;;;;;;;1.10;1.00;;;;;;;;;;5071989;28;20217;-34
2023/07/20 12:56:02;;;;;;;1.00;1.00;;;;;;;;;;5078045;28;20530;-34
2023/07/20 12:58:30;;;;;;;1.35;1.25;;;;;;;;;;5074373;28;20228;-30
2023/07/20 13:00:57;;;;;;;1.52;0.90;;;;;;;;;;5070884;28;20255;-37
2023/07/20 13:03:24;;;;;;;1.15;1.10;;;;;;;;;;5069286;28;20242;-27
2023/07/20 13:05:52;;;;;;;3.70;1.10;;;;;;;;;;5058555;28;20208;-32
2023/07/20 13:08:20;;;;;;;0.93;0.93;;;;;;;;;;5066292;28;20247;-36
2023/07/20 13:10:48;;;;;;;1.15;0.80;;;;;;;;;;5061077;28;20200;-33
2023/07/20 13:13:15;;;;;;;4.43;1.10;;;;;;;;;;5069309;28;20208;-34
2023/07/20 13:15:46;;;;;;;2.05;1.10;;;;;;;;;;5070470;28;20213;-36
2023/07/20 13:18:13;;;;;;;2.53;1.10;;;;;;;;;;5070456;28;20226;-31
2023/07/20 13:20:40;;;;;;;2.78;1.23;;;;;;;;;;5060448;28;20232;-30
2023/07/20 13:23:07;;;;;;;2.20;1.27;;;;;;;;;;5067674;28;20211;-32
2023/07/20 13:25:36;;;;;;;5.35;1.20;;;;;;;;;;5069179;28;20289;-33
2023/07/20 13:28:03;;;;;;;1.92;0.98;;;;;;;;;;5067672;28;20233;-35
2023/07/20 13:30:30;;;;;;;3.60;1.23;;;;;;;;;;5072230;28;20213;-33
2023/07/20 13:32:57;;;;;;;1.35;1.25;;;;;;;;;;5066712;28;20214;-38
2023/07/20 13:35:24;;;;;;;2.05;1.20;;;;;;;;;;5065921;28;20229;-32
2023/07/20 13:37:51;;;;;;;1.58;1.40;;;;;;;;;;5065992;28;20207;-30
2023/07/20 13:40:19;;;;;;;1.95;1.40;;;;;;;;;;5066621;28;20231;-31
2023/07/20 13:42:48;;;;;;;3.45;0.98;;;;;;;;;;5061952;28;20216;-32
2023/07/20 13:45:15;;;;;;;1.63;1.20;;;;;;;;;;5060635;28;20219;-34
2023/07/20 13:47:42;;;;;;;1.75;0.95;;;;;;;;;;5060528;28;20217;-35
2023/07/20 13:50:10;;;;;;;0.95;0.85;;;;;;;;;;5058513;28;20305;-29
2023/07/20 13:52:37;;;;;;;1.17;1.10;;;;;;;;;;5067911;28;20297;-32
2023/07/20 13:55:05;;;;;;;1.25;1.20;;;;;;;;;;5063457;28;20304;-32
2023/07/20 13:57:32;;;;;;;1.20;1.10;;;;;;;;;;5057958;28;20223;-29
2023/07/20 14:00:02;;;;;;;3.53;1.10;;;;;;;;;;5062622;28;20233;-31
2023/07/20 14:02:29;;;;;;;1.65;1.05;;;;;;;;;;5071002;28;20208;-31
2023/07/20 14:04:56;;;;;;;0.90;0.88;;;;;;;;;;5061105;28;20232;-31
2023/07/20 14:07:24;;;;;;;1.30;1.20;;;;;;;;;;5073034;28;20205;-34
2023/07/20 14:09:51;;;;;;;2.97;1.30;;;;;;;;;;5087931;28;20216;-30
2023/07/20 14:12:18;;;;;;;2.13;1.35;;;;;;;;;;5065020;28;20423;-31
2023/07/20 14:14:45;;;;;;;2.03;1.30;;;;;;;;;;5069298;28;20218;-36
2023/07/20 14:17:14;;;;;;;1.75;1.20;;;;;;;;;;5070394;28;20212;-32
2023/07/20 14:19:48;;;;;;;1.05;0.98;;;;;;;;;;5059536;28;20268;-30
2023/07/20 14:22:17;;;;;;;2.05;1.00;;;;;;;;;;5071076;28;20195;-32
2023/07/20 14:24:44;;;;;;;1.58;1.20;;;;;;;;;;5064473;28;20247;-28
2023/07/20 14:27:12;;;;;;;1.63;1.10;;;;;;;;;;5056186;28;20235;-30
2023/07/20 14:29:39;;;;;;;1.33;1.17;;;;;;;;;;5070827;28;20274;-36
2023/07/20 14:32:07;;;;;;;1.50;1.40;;;;;;;;;;5052527;28;20224;-30
2023/07/20 14:34:36;;;;;;;1.25;1.05;;;;;;;;;;5053893;28;20213;-32
2023/07/20 14:37:04;;;;;;;0.90;0.90;;;;;;;;;;5064789;28;20204;-29
2023/07/20 14:39:31;;;;;;;1.23;1.02;;;;;;;;;;5070478;28;20292;-32
2023/07/20 14:41:59;;;;;;;3.60;1.00;;;;;;;;;;5067014;28;20486;-37
2023/07/20 14:44:27;;;;;;;1.50;1.40;;;;;;;;;;5073181;28;20263;-34
2023/07/20 14:46:55;;;;;;;1.55;1.20;;;;;;;;;;5076899;28;20209;-34
2023/07/20 14:49:22;;;;;;;1.45;1.10;;;;;;;;;;5059095;28;20256;-32
2023/07/20 14:51:53;;;;;;;0.90;0.90;;;;;;;;;;5064169;28;20234;-33